Time;durP1;ratioP1;P1;durP2;ratioP2;P2;SDS_P1;SDS_P2;PMS_P1;PMS_P2;Temp;Humidity;BMP_temperature;BMP_pressure;BME280_temperature;BME280_humidity;BME280_pressure;Samples;Min_cycle;Max_cycle;Signal;HPM_P1;HPM_P2
2023/04/18 00:01:55;;;;;;;5.43;4.03;;;;;;;;;;5047215;28;20243;-74
2023/04/18 00:04:22;;;;;;;6.03;4.13;;;;;;;;;;5041713;28;20200;-74
2023/04/18 00:06:49;;;;;;;5.27;4.60;;;;;;;;;;5041581;28;20204;-74
2023/04/18 00:09:17;;;;;;;4.73;4.17;;;;;;;;;;5045558;28;20207;-74
2023/04/18 00:11:45;;;;;;;4.30;3.90;;;;;;;;;;5041514;28;20197;-74
2023/04/18 00:14:12;;;;;;;4.73;4.27;;;;;;;;;;5042198;28;20211;-74
2023/04/18 00:16:39;;;;;;;4.90;4.30;;;;;;;;;;5038068;28;20200;-74
2023/04/18 00:19:07;;;;;;;5.30;4.33;;;;;;;;;;5048570;28;20204;-74
2023/04/18 00:21:34;;;;;;;5.53;4.50;;;;;;;;;;5049126;28;20288;-74
2023/04/18 00:24:02;;;;;;;4.63;4.17;;;;;;;;;;5048263;28;20217;-74
2023/04/18 00:26:30;;;;;;;5.20;4.40;;;;;;;;;;5049701;28;20204;-74
2023/04/18 00:28:57;;;;;;;4.63;4.13;;;;;;;;;;5041228;28;20218;-74
2023/04/18 00:31:24;;;;;;;5.50;4.70;;;;;;;;;;5047276;28;20199;-74
2023/04/18 00:33:51;;;;;;;7.23;4.83;;;;;;;;;;5041478;28;20207;-74
2023/04/18 00:36:19;;;;;;;4.57;4.17;;;;;;;;;;5045512;28;20210;-74
2023/04/18 00:38:46;;;;;;;5.13;4.63;;;;;;;;;;5040604;28;20200;-75
2023/04/18 00:41:13;;;;;;;8.43;4.60;;;;;;;;;;5044355;28;20242;-74
2023/04/18 00:43:41;;;;;;;9.70;4.43;;;;;;;;;;5045505;28;20200;-74
2023/04/18 00:46:09;;;;;;;6.60;4.87;;;;;;;;;;5044060;28;20235;-74
2023/04/18 00:48:37;;;;;;;7.63;4.57;;;;;;;;;;5044681;28;20204;-74
2023/04/18 00:51:05;;;;;;;6.60;4.80;;;;;;;;;;5044799;28;20208;-74
2023/04/18 00:53:32;;;;;;;7.10;4.67;;;;;;;;;;5043701;28;20203;-74
2023/04/18 00:55:59;;;;;;;7.80;4.57;;;;;;;;;;5041734;28;20199;-74
2023/04/18 00:58:26;;;;;;;5.13;4.50;;;;;;;;;;5040402;28;20203;-74
2023/04/18 01:00:55;;;;;;;6.23;5.00;;;;;;;;;;5042996;28;20212;-74
2023/04/18 01:03:22;;;;;;;5.43;4.73;;;;;;;;;;5046773;28;20207;-75
2023/04/18 01:05:50;;;;;;;7.23;4.90;;;;;;;;;;5045417;28;20286;-75
2023/04/18 01:08:18;;;;;;;5.40;4.90;;;;;;;;;;5040606;28;20200;-74
2023/04/18 01:10:45;;;;;;;6.70;4.80;;;;;;;;;;5043449;28;20214;-74
2023/04/18 01:13:16;;;;;;;5.83;4.90;;;;;;;;;;5037029;28;20212;-75
2023/04/18 01:15:43;;;;;;;5.27;4.77;;;;;;;;;;5043386;28;20245;-75
2023/04/18 01:18:15;;;;;;;7.13;4.70;;;;;;;;;;5039526;28;20217;-74
2023/04/18 01:20:45;;;;;;;5.37;4.90;;;;;;;;;;5035166;28;20227;-74
2023/04/18 01:23:12;;;;;;;6.07;4.90;;;;;;;;;;5042166;28;20208;-75
2023/04/18 01:25:41;;;;;;;6.03;4.90;;;;;;;;;;5044753;28;20214;-75
2023/04/18 01:28:08;;;;;;;5.50;5.00;;;;;;;;;;5042401;28;20203;-75
2023/04/18 01:30:35;;;;;;;5.17;4.67;;;;;;;;;;5047783;28;20204;-75
2023/04/18 01:33:03;;;;;;;5.70;4.73;;;;;;;;;;5044087;28;20217;-75
2023/04/18 01:35:30;;;;;;;6.93;5.03;;;;;;;;;;5040023;28;20199;-75
2023/04/18 01:37:58;;;;;;;5.50;4.87;;;;;;;;;;5040447;28;20206;-75
2023/04/18 01:40:25;;;;;;;5.67;5.10;;;;;;;;;;5040466;28;20199;-75
2023/04/18 01:42:53;;;;;;;5.10;4.60;;;;;;;;;;5042921;28;20219;-75
2023/04/18 01:45:21;;;;;;;6.73;5.03;;;;;;;;;;5040141;28;20251;-75
2023/04/18 01:47:48;;;;;;;5.67;4.60;;;;;;;;;;5044215;28;20200;-75
2023/04/18 01:50:15;;;;;;;5.90;4.67;;;;;;;;;;5041597;28;20202;-75
2023/04/18 01:52:42;;;;;;;4.80;4.30;;;;;;;;;;5041032;28;20204;-75
2023/04/18 01:55:10;;;;;;;7.27;4.87;;;;;;;;;;5043853;28;20203;-75
2023/04/18 01:57:37;;;;;;;6.20;4.50;;;;;;;;;;5042228;28;20215;-75
2023/04/18 02:00:06;;;;;;;7.57;4.80;;;;;;;;;;5045351;28;20207;-75
2023/04/18 02:02:34;;;;;;;5.47;4.70;;;;;;;;;;5042587;28;20318;-75
2023/04/18 02:05:01;;;;;;;6.07;4.93;;;;;;;;;;5038037;28;20203;-75
2023/04/18 02:07:28;;;;;;;11.53;4.93;;;;;;;;;;5045477;28;20199;-75
2023/04/18 02:09:55;;;;;;;6.13;4.90;;;;;;;;;;5041994;28;20210;-75
2023/04/18 02:12:22;;;;;;;5.70;4.43;;;;;;;;;;5047386;28;20212;-75
2023/04/18 02:14:52;;;;;;;5.30;4.80;;;;;;;;;;5039243;28;20202;-75
2023/04/18 02:17:22;;;;;;;5.63;4.80;;;;;;;;;;5049714;28;20210;-75
2023/04/18 02:19:50;;;;;;;6.40;4.73;;;;;;;;;;5038780;28;20204;-75
2023/04/18 02:22:17;;;;;;;5.37;4.83;;;;;;;;;;5047799;28;20216;-74
2023/04/18 02:24:44;;;;;;;7.30;5.07;;;;;;;;;;5046657;28;20207;-75
2023/04/18 02:27:11;;;;;;;6.00;4.53;;;;;;;;;;5049771;28;20202;-75
2023/04/18 02:29:38;;;;;;;5.23;4.73;;;;;;;;;;5043534;28;20200;-75
2023/04/18 02:32:06;;;;;;;6.90;5.03;;;;;;;;;;5042559;28;20211;-75
2023/04/18 02:34:34;;;;;;;6.03;4.70;;;;;;;;;;5047256;28;20218;-75
2023/04/18 02:37:02;;;;;;;5.10;4.60;;;;;;;;;;5042943;28;20211;-75
2023/04/18 02:39:29;;;;;;;5.67;5.13;;;;;;;;;;5046044;28;20229;-75
2023/04/18 02:41:56;;;;;;;6.43;4.97;;;;;;;;;;5049584;28;20207;-75
2023/04/18 02:44:24;;;;;;;5.40;4.77;;;;;;;;;;5051576;28;20258;-74
2023/04/18 02:46:51;;;;;;;6.57;4.97;;;;;;;;;;5045027;28;20215;-75
2023/04/18 02:49:18;;;;;;;5.67;5.07;;;;;;;;;;5049585;28;20203;-75
2023/04/18 02:51:46;;;;;;;5.53;4.93;;;;;;;;;;5043465;28;20215;-75
2023/04/18 02:54:13;;;;;;;7.27;5.00;;;;;;;;;;5042223;28;20219;-75
2023/04/18 02:56:41;;;;;;;5.20;4.80;;;;;;;;;;5049573;28;20207;-75
2023/04/18 02:59:08;;;;;;;5.07;4.50;;;;;;;;;;5045766;28;20331;-75
2023/04/18 03:01:36;;;;;;;6.33;4.77;;;;;;;;;;5044887;28;20219;-76
2023/04/18 03:04:03;;;;;;;5.43;4.93;;;;;;;;;;5045437;28;20234;-76
2023/04/18 03:06:30;;;;;;;9.73;5.13;;;;;;;;;;5041119;28;20261;-76
2023/04/18 03:08:59;;;;;;;5.73;4.83;;;;;;;;;;5041897;28;20242;-76
2023/04/18 03:11:26;;;;;;;6.03;5.00;;;;;;;;;;5044024;28;20246;-76
2023/04/18 03:13:54;;;;;;;5.50;5.00;;;;;;;;;;5046356;28;20210;-76
2023/04/18 03:16:21;;;;;;;5.37;4.87;;;;;;;;;;5044303;28;20207;-76
2023/04/18 03:18:48;;;;;;;5.80;4.80;;;;;;;;;;5047426;28;20216;-76
2023/04/18 03:21:15;;;;;;;8.23;4.83;;;;;;;;;;5042206;28;20291;-76
2023/04/18 03:23:42;;;;;;;6.30;5.00;;;;;;;;;;5044529;28;20199;-76
2023/04/18 03:26:12;;;;;;;5.27;4.80;;;;;;;;;;5043711;28;20266;-76
2023/04/18 03:28:39;;;;;;;7.57;4.90;;;;;;;;;;5037582;28;20208;-76
2023/04/18 03:31:06;;;;;;;5.70;5.03;;;;;;;;;;5036027;28;20200;-76
2023/04/18 03:33:34;;;;;;;6.33;5.00;;;;;;;;;;5035585;28;20295;-76
2023/04/18 03:36:01;;;;;;;5.60;5.13;;;;;;;;;;5041808;28;20214;-75
2023/04/18 03:38:28;;;;;;;5.13;4.63;;;;;;;;;;5044322;28;20202;-76
2023/04/18 03:40:55;;;;;;;6.50;5.30;;;;;;;;;;5036567;28;20211;-75
2023/04/18 03:43:23;;;;;;;5.67;5.07;;;;;;;;;;5038650;28;20231;-75
2023/04/18 03:45:51;;;;;;;5.63;4.70;;;;;;;;;;5038520;28;20232;-75
2023/04/18 03:48:18;;;;;;;6.47;5.43;;;;;;;;;;5038447;28;20204;-75
2023/04/18 03:50:45;;;;;;;5.77;5.17;;;;;;;;;;5044054;28;20204;-75
2023/04/18 03:53:13;;;;;;;5.63;5.03;;;;;;;;;;5048435;28;20196;-75
2023/04/18 03:55:40;;;;;;;5.83;5.33;;;;;;;;;;5050288;28;20204;-75
2023/04/18 03:58:07;;;;;;;5.53;4.97;;;;;;;;;;5045978;28;20226;-75
2023/04/18 04:00:35;;;;;;;5.97;5.10;;;;;;;;;;5045331;28;20201;-75
2023/04/18 04:03:02;;;;;;;5.77;5.17;;;;;;;;;;5046106;28;20227;-75
2023/04/18 04:05:30;;;;;;;5.60;5.10;;;;;;;;;;5041750;28;20196;-75
2023/04/18 04:07:57;;;;;;;5.97;5.03;;;;;;;;;;5046302;28;20223;-75
2023/04/18 04:10:24;;;;;;;5.63;5.13;;;;;;;;;;5043634;28;20207;-75
2023/04/18 04:12:51;;;;;;;6.70;5.67;;;;;;;;;;5043363;28;20207;-75
2023/04/18 04:15:18;;;;;;;8.50;5.27;;;;;;;;;;5038251;28;20230;-75
2023/04/18 04:17:47;;;;;;;6.17;5.57;;;;;;;;;;5037990;28;20208;-75
2023/04/18 04:20:14;;;;;;;7.13;5.50;;;;;;;;;;5039740;28;20207;-75
2023/04/18 04:22:41;;;;;;;5.73;5.13;;;;;;;;;;5040537;28;20231;-75
2023/04/18 04:25:09;;;;;;;7.03;5.67;;;;;;;;;;5041028;28;20293;-75
2023/04/18 04:27:37;;;;;;;5.97;5.37;;;;;;;;;;5044194;28;20267;-75
2023/04/18 04:30:05;;;;;;;7.87;5.87;;;;;;;;;;5039276;28;20211;-75
2023/04/18 04:32:32;;;;;;;9.10;5.60;;;;;;;;;;5048736;28;20200;-75
2023/04/18 04:35:01;;;;;;;8.93;6.10;;;;;;;;;;5044181;28;20203;-75
2023/04/18 04:37:28;;;;;;;5.83;5.23;;;;;;;;;;5045125;28;20200;-75
2023/04/18 04:39:56;;;;;;;6.30;5.57;;;;;;;;;;5040208;28;20208;-75
2023/04/18 04:42:25;;;;;;;6.50;5.90;;;;;;;;;;5040914;28;20277;-75
2023/04/18 04:44:53;;;;;;;7.67;6.20;;;;;;;;;;5043882;28;20235;-75
2023/04/18 04:47:20;;;;;;;7.70;6.13;;;;;;;;;;5042033;28;20214;-75
2023/04/18 04:49:47;;;;;;;6.43;5.83;;;;;;;;;;5047335;28;20208;-76
2023/04/18 04:52:15;;;;;;;7.97;6.30;;;;;;;;;;5043937;28;20200;-75
2023/04/18 04:54:44;;;;;;;8.37;6.23;;;;;;;;;;5043155;28;20204;-75
2023/04/18 04:57:11;;;;;;;9.20;6.23;;;;;;;;;;5038435;28;20200;-75
2023/04/18 04:59:38;;;;;;;9.10;6.33;;;;;;;;;;5041305;28;20204;-75
2023/04/18 05:02:05;;;;;;;7.23;6.53;;;;;;;;;;5046720;28;20230;-75
2023/04/18 05:04:33;;;;;;;8.67;6.00;;;;;;;;;;5048861;28;20195;-74
2023/04/18 05:07:00;;;;;;;7.40;6.60;;;;;;;;;;5042996;28;20207;-74
2023/04/18 05:09:28;;;;;;;7.23;6.43;;;;;;;;;;5043414;28;20214;-74
2023/04/18 05:11:55;;;;;;;8.63;6.47;;;;;;;;;;5042558;28;20211;-74
2023/04/18 05:14:24;;;;;;;7.63;6.50;;;;;;;;;;5045551;28;20240;-74
2023/04/18 05:16:51;;;;;;;8.50;6.90;;;;;;;;;;5044942;28;20222;-74
2023/04/18 05:19:18;;;;;;;7.17;6.47;;;;;;;;;;5043009;28;20204;-74
2023/04/18 05:21:45;;;;;;;8.13;6.43;;;;;;;;;;5037962;28;20211;-74
2023/04/18 05:24:12;;;;;;;7.67;6.83;;;;;;;;;;5041207;28;20211;-74
2023/04/18 05:26:41;;;;;;;7.97;7.03;;;;;;;;;;5037549;28;20200;-75
2023/04/18 05:29:08;;;;;;;8.27;6.97;;;;;;;;;;5033898;28;20297;-74
2023/04/18 05:31:35;;;;;;;7.73;6.27;;;;;;;;;;5034659;28;20242;-74
2023/04/18 05:34:02;;;;;;;8.00;6.70;;;;;;;;;;5034097;28;20199;-74
2023/04/18 05:36:30;;;;;;;7.10;6.40;;;;;;;;;;5037409;28;20204;-74
2023/04/18 05:38:57;;;;;;;7.30;6.60;;;;;;;;;;5043106;28;20200;-74
2023/04/18 05:41:24;;;;;;;9.40;7.10;;;;;;;;;;5042648;28;20203;-74
2023/04/18 05:43:53;;;;;;;7.57;6.50;;;;;;;;;;5039154;28;20227;-73
2023/04/18 05:46:20;;;;;;;7.30;6.57;;;;;;;;;;5040929;28;20231;-74
2023/04/18 05:48:47;;;;;;;7.80;6.90;;;;;;;;;;5038731;28;20212;-74
2023/04/18 05:51:14;;;;;;;8.50;6.87;;;;;;;;;;5040430;28;20207;-74
2023/04/18 05:53:41;;;;;;;9.60;7.53;;;;;;;;;;5039409;28;20199;-74
2023/04/18 05:56:08;;;;;;;8.03;7.23;;;;;;;;;;5039971;28;20215;-74
2023/04/18 05:58:35;;;;;;;8.47;6.57;;;;;;;;;;5019837;28;20228;-74
2023/04/18 06:01:05;;;;;;;7.83;7.13;;;;;;;;;;5020736;28;20196;-74
2023/04/18 06:03:32;;;;;;;8.47;7.60;;;;;;;;;;5016698;28;20228;-74
2023/04/18 06:05:59;;;;;;;11.07;7.00;;;;;;;;;;5024773;28;20233;-74
2023/04/18 06:08:26;;;;;;;10.13;7.73;;;;;;;;;;5019483;28;20211;-74
2023/04/18 06:10:53;;;;;;;9.77;7.37;;;;;;;;;;5019085;28;20248;-74
2023/04/18 06:13:20;;;;;;;12.00;8.07;;;;;;;;;;5016706;28;20196;-74
2023/04/18 06:15:47;;;;;;;8.03;7.20;;;;;;;;;;5027162;28;20212;-73
2023/04/18 06:18:16;;;;;;;8.63;7.73;;;;;;;;;;5022924;28;20209;-73
2023/04/18 06:20:44;;;;;;;9.70;7.80;;;;;;;;;;5019638;28;20222;-74
2023/04/18 06:23:11;;;;;;;8.80;7.90;;;;;;;;;;5006945;28;20236;-73
2023/04/18 06:25:38;;;;;;;8.77;7.50;;;;;;;;;;5023113;28;20330;-74
2023/04/18 06:28:05;;;;;;;10.27;8.13;;;;;;;;;;5015586;28;20204;-73
2023/04/18 06:30:32;;;;;;;9.70;8.17;;;;;;;;;;5020661;28;20209;-75
2023/04/18 06:32:59;;;;;;;10.30;8.00;;;;;;;;;;5021645;28;20294;-74
2023/04/18 06:35:29;;;;;;;11.57;9.03;;;;;;;;;;5020503;28;20204;-74
2023/04/18 06:37:58;;;;;;;11.87;9.00;;;;;;;;;;5022539;28;20212;-75
2023/04/18 06:40:25;;;;;;;11.43;8.97;;;;;;;;;;5019539;28;20299;-74
2023/04/18 06:42:52;;;;;;;10.83;8.50;;;;;;;;;;5020207;28;20229;-73
2023/04/18 06:45:19;;;;;;;11.77;9.43;;;;;;;;;;5015451;28;20241;-74
2023/04/18 06:47:47;;;;;;;10.77;8.60;;;;;;;;;;5018687;28;20212;-75
2023/04/18 06:50:14;;;;;;;8.93;8.03;;;;;;;;;;5023280;28;20200;-73
2023/04/18 06:52:44;;;;;;;12.70;9.07;;;;;;;;;;5017686;28;20201;-73
2023/04/18 06:55:11;;;;;;;11.30;10.07;;;;;;;;;;5019636;28;20215;-73
2023/04/18 06:57:39;;;;;;;12.37;9.80;;;;;;;;;;5023976;28;20204;-73
2023/04/18 07:00:07;;;;;;;11.57;10.37;;;;;;;;;;5016517;28;20212;-73
2023/04/18 07:02:35;;;;;;;10.77;9.67;;;;;;;;;;5024594;28;20229;-74
2023/04/18 07:05:02;;;;;;;10.87;9.73;;;;;;;;;;5023403;28;20216;-73
2023/04/18 07:07:29;;;;;;;11.10;10.00;;;;;;;;;;5023653;28;20204;-73
2023/04/18 07:09:58;;;;;;;11.17;9.20;;;;;;;;;;5025214;28;20201;-74
2023/04/18 07:12:26;;;;;;;12.47;9.67;;;;;;;;;;5027624;28;20207;-73
2023/04/18 07:14:53;;;;;;;11.73;10.53;;;;;;;;;;5024706;28;20209;-73
2023/04/18 07:17:20;;;;;;;11.57;9.80;;;;;;;;;;5025482;28;20212;-73
2023/04/18 07:19:47;;;;;;;11.93;10.50;;;;;;;;;;5022631;28;20254;-75
2023/04/18 07:22:14;;;;;;;12.40;10.20;;;;;;;;;;5025196;28;20290;-73
2023/04/18 07:24:42;;;;;;;11.60;10.40;;;;;;;;;;5033628;28;20227;-73
2023/04/18 07:27:11;;;;;;;11.63;10.33;;;;;;;;;;5028616;28;20236;-72
2023/04/18 07:29:38;;;;;;;11.03;9.97;;;;;;;;;;5023800;28;20201;-72
2023/04/18 07:32:05;;;;;;;14.07;10.73;;;;;;;;;;5026239;28;20204;-73
2023/04/18 07:34:32;;;;;;;10.83;9.70;;;;;;;;;;5022783;28;20204;-73
2023/04/18 07:37:00;;;;;;;9.60;8.60;;;;;;;;;;5022000;28;20216;-73
2023/04/18 07:39:27;;;;;;;10.60;9.50;;;;;;;;;;5024098;28;20240;-73
2023/04/18 07:41:54;;;;;;;11.80;9.20;;;;;;;;;;5023925;28;20209;-73
2023/04/18 07:44:24;;;;;;;11.63;9.73;;;;;;;;;;5021352;28;20254;-64
2023/04/18 07:46:52;;;;;;;11.10;10.03;;;;;;;;;;5022343;28;20200;-64
2023/04/18 07:49:19;;;;;;;11.60;10.40;;;;;;;;;;5025832;28;20204;-65
2023/04/18 07:51:46;;;;;;;11.07;9.43;;;;;;;;;;5020214;28;20205;-65
2023/04/18 07:54:13;;;;;;;11.30;10.10;;;;;;;;;;5019563;28;20219;-64
2023/04/18 07:56:40;;;;;;;10.87;9.77;;;;;;;;;;5023663;28;20211;-63
2023/04/18 07:59:08;;;;;;;11.10;9.90;;;;;;;;;;5024859;28;20220;-64
2023/04/18 08:01:36;;;;;;;12.93;9.90;;;;;;;;;;5025114;28;20204;-63
2023/04/18 08:04:03;;;;;;;10.23;9.27;;;;;;;;;;5026148;28;20220;-64
2023/04/18 08:06:30;;;;;;;11.47;9.10;;;;;;;;;;5023625;28;20208;-66
2023/04/18 08:09:02;;;;;;;10.00;9.00;;;;;;;;;;5020108;28;20215;-64
2023/04/18 08:11:30;;;;;;;10.43;9.17;;;;;;;;;;5020574;28;20212;-64
2023/04/18 08:13:57;;;;;;;10.73;9.63;;;;;;;;;;5023415;28;20204;-63
2023/04/18 08:16:24;;;;;;;10.03;9.03;;;;;;;;;;5023477;28;20200;-64
2023/04/18 08:18:52;;;;;;;10.77;9.67;;;;;;;;;;5024957;28;20206;-64
2023/04/18 08:21:20;;;;;;;10.67;9.23;;;;;;;;;;5022758;28;20216;-66
2023/04/18 08:23:47;;;;;;;10.00;9.00;;;;;;;;;;5019829;28;20232;-66
2023/04/18 08:26:14;;;;;;;9.63;8.73;;;;;;;;;;5024840;28;20218;-64
2023/04/18 08:28:41;;;;;;;9.77;8.60;;;;;;;;;;5022037;28;20204;-65
2023/04/18 08:31:12;;;;;;;9.43;8.53;;;;;;;;;;5022088;28;20204;-65
2023/04/18 08:33:39;;;;;;;9.97;8.97;;;;;;;;;;5023505;28;20205;-64
2023/04/18 08:36:08;;;;;;;9.63;8.60;;;;;;;;;;5023225;28;20218;-65
2023/04/18 08:38:35;;;;;;;10.60;8.67;;;;;;;;;;5027785;28;20201;-66
2023/04/18 08:41:03;;;;;;;9.90;8.17;;;;;;;;;;5021270;28;20196;-64
2023/04/18 08:43:30;;;;;;;8.80;8.00;;;;;;;;;;5022135;28;20220;-65
2023/04/18 08:46:00;;;;;;;9.37;8.50;;;;;;;;;;5020325;28;20243;-65
2023/04/18 08:48:28;;;;;;;9.13;8.23;;;;;;;;;;5026076;28;20231;-65
2023/04/18 08:50:57;;;;;;;8.60;7.80;;;;;;;;;;5022758;28;20255;-64
2023/04/18 08:53:26;;;;;;;8.63;7.83;;;;;;;;;;5021806;28;20263;-64
2023/04/18 08:55:55;;;;;;;8.40;7.60;;;;;;;;;;5021079;28;20208;-64
2023/04/18 08:58:22;;;;;;;9.27;8.37;;;;;;;;;;5021350;28;20209;-64
2023/04/18 09:00:52;;;;;;;8.63;7.83;;;;;;;;;;5017843;28;20211;-63
2023/04/18 09:03:36;;;;;;;8.53;7.77;;;;;;;;;;5021822;28;20228;-65
2023/04/18 09:06:12;;;;;;;8.60;7.80;;;;;;;;;;5020723;28;20218;-64
2023/04/18 09:08:41;;;;;;;8.00;7.20;;;;;;;;;;5019460;28;20204;-65
2023/04/18 09:11:20;;;;;;;8.20;7.50;;;;;;;;;;5018668;28;20208;-64
2023/04/18 09:13:49;;;;;;;9.10;8.20;;;;;;;;;;5023818;28;20207;-64
2023/04/18 09:16:16;;;;;;;8.73;7.93;;;;;;;;;;5023523;28;20204;-64
2023/04/18 09:19:03;;;;;;;8.57;7.67;;;;;;;;;;5021881;28;20216;-63
2023/04/18 09:21:31;;;;;;;8.37;7.57;;;;;;;;;;5022610;28;20207;-65
2023/04/18 09:24:07;;;;;;;9.03;8.13;;;;;;;;;;5023292;28;20245;-65
2023/04/18 09:26:35;;;;;;;8.37;7.57;;;;;;;;;;5020419;28;20208;-64
2023/04/18 09:29:02;;;;;;;8.40;7.60;;;;;;;;;;5017017;28;20242;-63
2023/04/18 09:31:29;;;;;;;8.10;7.30;;;;;;;;;;5021337;28;20201;-65
2023/04/18 09:33:56;;;;;;;10.53;7.73;;;;;;;;;;5022300;28;20200;-66
2023/04/18 09:36:25;;;;;;;7.30;6.70;;;;;;;;;;5021923;28;20204;-65
2023/04/18 09:38:53;;;;;;;7.77;7.07;;;;;;;;;;5023783;28;20203;-63
2023/04/18 09:41:22;;;;;;;8.40;7.60;;;;;;;;;;5018520;28;20211;-65
2023/04/18 09:43:50;;;;;;;10.97;8.20;;;;;;;;;;5025023;28;20223;-65
2023/04/18 09:46:20;;;;;;;8.93;8.13;;;;;;;;;;5020472;28;20208;-64
2023/04/18 09:48:47;;;;;;;8.30;7.50;;;;;;;;;;5021527;28;20212;-65
2023/04/18 09:51:15;;;;;;;9.57;8.57;;;;;;;;;;5022083;28;20201;-65
2023/04/18 09:53:43;;;;;;;8.83;8.03;;;;;;;;;;5020872;28;20251;-65
2023/04/18 09:56:15;;;;;;;9.17;8.27;;;;;;;;;;5020505;28;20209;-65
2023/04/18 09:58:44;;;;;;;9.23;8.23;;;;;;;;;;5011255;28;20208;-63
2023/04/18 10:01:12;;;;;;;8.37;7.57;;;;;;;;;;5019135;28;20204;-63
2023/04/18 10:03:41;;;;;;;8.02;7.18;;;;;;;;;;5019480;28;20225;-66
2023/04/18 10:06:09;;;;;;;7.50;6.90;;;;;;;;;;5020418;28;20223;-64
2023/04/18 10:08:37;;;;;;;8.60;7.80;;;;;;;;;;5020570;28;20208;-64
2023/04/18 10:11:04;;;;;;;7.72;7.13;;;;;;;;;;5020154;28;20201;-64
2023/04/18 10:13:31;;;;;;;8.77;7.93;;;;;;;;;;5019454;28;20271;-64
2023/04/18 10:16:00;;;;;;;8.95;8.07;;;;;;;;;;5016794;28;20213;-63
2023/04/18 10:18:27;;;;;;;9.40;8.50;;;;;;;;;;5019390;28;20243;-65
2023/04/18 10:21:02;;;;;;;10.15;7.68;;;;;;;;;;5020657;28;20202;-64
2023/04/18 10:23:36;;;;;;;8.95;8.00;;;;;;;;;;5022470;28;20204;-63
2023/04/18 10:26:04;;;;;;;9.05;7.75;;;;;;;;;;5023144;28;20218;-63
2023/04/18 10:28:46;;;;;;;8.95;7.68;;;;;;;;;;5022361;28;20219;-64
2023/04/18 10:31:16;;;;;;;9.02;8.23;;;;;;;;;;5020117;28;20211;-63
2023/04/18 10:33:47;;;;;;;8.73;7.93;;;;;;;;;;5019695;28;20209;-64
2023/04/18 10:36:17;;;;;;;9.20;8.30;;;;;;;;;;5023035;28;20204;-64
2023/04/18 10:38:48;;;;;;;8.82;8.02;;;;;;;;;;5025035;28;20196;-63
2023/04/18 10:41:25;;;;;;;8.63;7.88;;;;;;;;;;5019735;28;20204;-63
2023/04/18 10:44:11;;;;;;;9.55;8.65;;;;;;;;;;5025317;28;20215;-64
2023/04/18 10:46:40;;;;;;;8.52;7.72;;;;;;;;;;5020158;28;20204;-63
2023/04/18 10:49:14;;;;;;;8.95;8.15;;;;;;;;;;5024658;28;20212;-63
2023/04/18 10:51:43;;;;;;;9.63;8.73;;;;;;;;;;5024864;28;20246;-63
2023/04/18 10:54:11;;;;;;;9.25;8.35;;;;;;;;;;5029347;28;20205;-63
2023/04/18 10:56:38;;;;;;;8.82;7.93;;;;;;;;;;5032111;28;20211;-63
2023/04/18 10:59:05;;;;;;;9.38;8.48;;;;;;;;;;5026922;28;20258;-65
2023/04/18 11:01:33;;;;;;;9.25;8.35;;;;;;;;;;5026964;28;20287;-64
2023/04/18 11:04:01;;;;;;;9.02;8.23;;;;;;;;;;5023829;28;20216;-63
2023/04/18 11:06:30;;;;;;;8.48;7.68;;;;;;;;;;5023051;28;20204;-63
2023/04/18 11:09:09;;;;;;;8.85;8.05;;;;;;;;;;5020268;28;20303;-64
2023/04/18 11:11:36;;;;;;;8.63;7.68;;;;;;;;;;5017808;28;20208;-63
2023/04/18 11:14:03;;;;;;;8.75;7.95;;;;;;;;;;5020501;28;20212;-64
2023/04/18 11:16:31;;;;;;;8.88;8.00;;;;;;;;;;5017312;28;20212;-65
2023/04/18 11:18:59;;;;;;;8.40;7.63;;;;;;;;;;5025284;28;20213;-63
2023/04/18 11:21:27;;;;;;;9.32;8.43;;;;;;;;;;5025680;28;20216;-64
2023/04/18 11:23:55;;;;;;;9.98;8.82;;;;;;;;;;5021727;28;20223;-64
2023/04/18 11:26:25;;;;;;;9.25;8.35;;;;;;;;;;5021581;28;20200;-64
2023/04/18 11:28:52;;;;;;;9.18;8.27;;;;;;;;;;5025589;28;20208;-63
2023/04/18 11:31:23;;;;;;;9.63;8.73;;;;;;;;;;5021431;28;20212;-63
2023/04/18 11:33:50;;;;;;;9.70;8.75;;;;;;;;;;5020811;28;20212;-64
2023/04/18 11:36:17;;;;;;;9.45;8.55;;;;;;;;;;5023204;28;20231;-64
2023/04/18 11:38:46;;;;;;;10.45;9.40;;;;;;;;;;5021085;28;20205;-63
2023/04/18 11:41:13;;;;;;;9.35;8.45;;;;;;;;;;5025307;28;20197;-65
2023/04/18 11:43:43;;;;;;;9.32;8.38;;;;;;;;;;5019672;28;20196;-63
2023/04/18 11:46:10;;;;;;;9.23;8.32;;;;;;;;;;5022831;28;20236;-64
2023/04/18 11:48:37;;;;;;;8.85;8.05;;;;;;;;;;5022210;28;20200;-64
2023/04/18 11:51:05;;;;;;;9.48;8.40;;;;;;;;;;5026029;28;20305;-63
2023/04/18 11:53:33;;;;;;;8.32;7.53;;;;;;;;;;5021205;28;20205;-64
2023/04/18 11:56:02;;;;;;;8.60;7.80;;;;;;;;;;5020271;28;20255;-63
2023/04/18 11:58:33;;;;;;;8.82;7.95;;;;;;;;;;5019779;28;20204;-63
2023/04/18 12:01:00;;;;;;;8.43;7.63;;;;;;;;;;5023623;28;20222;-63
2023/04/18 12:03:28;;;;;;;8.48;7.68;;;;;;;;;;5026805;28;20208;-63
2023/04/18 12:05:59;;;;;;;9.05;8.15;;;;;;;;;;5020344;28;20217;-64
2023/04/18 12:08:26;;;;;;;8.82;7.97;;;;;;;;;;5025150;28;20212;-64
2023/04/18 12:10:54;;;;;;;8.48;7.63;;;;;;;;;;5024024;28;20212;-64
2023/04/18 12:13:26;;;;;;;8.43;7.60;;;;;;;;;;5026012;28;20209;-63
2023/04/18 12:15:53;;;;;;;10.23;8.35;;;;;;;;;;5022107;28;20200;-64
2023/04/18 12:18:21;;;;;;;8.30;7.60;;;;;;;;;;5026763;28;20212;-64
2023/04/18 12:20:50;;;;;;;8.07;7.38;;;;;;;;;;5024623;28;20201;-63
2023/04/18 12:23:30;;;;;;;7.95;7.25;;;;;;;;;;5024854;28;20295;-64
2023/04/18 12:26:01;;;;;;;8.23;7.43;;;;;;;;;;5024425;28;20238;-63
2023/04/18 12:28:29;;;;;;;8.10;7.30;;;;;;;;;;5022254;28;20238;-64
2023/04/18 12:30:57;;;;;;;7.90;6.75;;;;;;;;;;5022991;28;20215;-64
2023/04/18 12:33:25;;;;;;;8.02;7.22;;;;;;;;;;5023281;28;20224;-63
2023/04/18 12:35:52;;;;;;;8.45;7.65;;;;;;;;;;5020648;28;20286;-63
2023/04/18 12:38:21;;;;;;;8.95;8.15;;;;;;;;;;5018139;28;20205;-63
2023/04/18 12:40:48;;;;;;;8.52;7.72;;;;;;;;;;5018126;28;20204;-64
2023/04/18 12:43:15;;;;;;;8.20;7.40;;;;;;;;;;5021309;28;20212;-65
2023/04/18 12:45:44;;;;;;;7.78;7.07;;;;;;;;;;5025627;28;20343;-64
2023/04/18 12:48:11;;;;;;;7.82;6.95;;;;;;;;;;5024079;28;20228;-63
2023/04/18 12:50:38;;;;;;;8.30;7.50;;;;;;;;;;5018569;28;20207;-63
2023/04/18 12:53:05;;;;;;;7.47;6.78;;;;;;;;;;5022070;28;20203;-63
2023/04/18 12:55:33;;;;;;;7.30;6.70;;;;;;;;;;5021220;28;20213;-64
2023/04/18 12:58:00;;;;;;;7.80;7.05;;;;;;;;;;5023872;28;20211;-64
2023/04/18 13:00:28;;;;;;;7.13;6.53;;;;;;;;;;5021804;28;20208;-64
2023/04/18 13:02:56;;;;;;;7.80;7.10;;;;;;;;;;5021856;28;20204;-63
2023/04/18 13:05:25;;;;;;;7.80;7.10;;;;;;;;;;5014147;28;20231;-63
2023/04/18 13:07:52;;;;;;;7.25;6.60;;;;;;;;;;5012643;28;20213;-64
2023/04/18 13:10:20;;;;;;;7.10;6.50;;;;;;;;;;5014781;28;20232;-64
2023/04/18 13:12:49;;;;;;;6.72;6.13;;;;;;;;;;5021021;28;20211;-63
2023/04/18 13:15:16;;;;;;;7.63;6.93;;;;;;;;;;5020656;28;20208;-64
2023/04/18 13:17:44;;;;;;;7.63;6.85;;;;;;;;;;5028094;28;20223;-64
2023/04/18 13:20:13;;;;;;;7.00;6.40;;;;;;;;;;5020995;28;20204;-64
2023/04/18 13:22:40;;;;;;;7.20;6.60;;;;;;;;;;5012303;28;20300;-63
2023/04/18 13:25:09;;;;;;;7.45;6.78;;;;;;;;;;5013936;28;20271;-63
2023/04/18 13:27:36;;;;;;;7.05;6.45;;;;;;;;;;5019153;28;20215;-63
2023/04/18 13:30:03;;;;;;;7.10;6.50;;;;;;;;;;5020776;28;20222;-62
2023/04/18 13:32:31;;;;;;;8.65;7.85;;;;;;;;;;5020441;28;20205;-62
2023/04/18 13:34:58;;;;;;;7.38;6.68;;;;;;;;;;5012262;28;20219;-62
2023/04/18 13:37:27;;;;;;;7.82;7.13;;;;;;;;;;5016148;28;20201;-62
2023/04/18 13:39:54;;;;;;;7.72;6.95;;;;;;;;;;5021135;28;20206;-62
2023/04/18 13:42:21;;;;;;;7.10;6.50;;;;;;;;;;5020786;28;20217;-62
2023/04/18 13:44:48;;;;;;;6.97;6.32;;;;;;;;;;5018326;28;20247;-63
2023/04/18 13:47:16;;;;;;;7.18;6.47;;;;;;;;;;5027322;28;20251;-63
2023/04/18 13:49:43;;;;;;;7.93;7.20;;;;;;;;;;5017549;28;20212;-63
2023/04/18 13:52:10;;;;;;;7.75;7.05;;;;;;;;;;5015882;28;20214;-64
2023/04/18 13:54:40;;;;;;;7.32;6.63;;;;;;;;;;5023550;28;20220;-64
2023/04/18 13:57:10;;;;;;;7.95;6.38;;;;;;;;;;5018626;28;20212;-63
2023/04/18 13:59:38;;;;;;;6.90;6.30;;;;;;;;;;5018578;28;20208;-63
2023/04/18 14:02:05;;;;;;;7.55;6.53;;;;;;;;;;5021460;28;20204;-64
2023/04/18 14:04:33;;;;;;;6.35;5.75;;;;;;;;;;5016481;28;20216;-63
2023/04/18 14:07:00;;;;;;;6.47;5.97;;;;;;;;;;5023171;28;20271;-64
2023/04/18 14:09:27;;;;;;;6.50;6.00;;;;;;;;;;5019145;28;20282;-64
2023/04/18 14:11:56;;;;;;;6.43;5.82;;;;;;;;;;5018694;28;20218;-64
2023/04/18 14:14:24;;;;;;;6.03;5.53;;;;;;;;;;5019510;28;20223;-63
2023/04/18 14:16:52;;;;;;;6.20;5.60;;;;;;;;;;5015101;28;20303;-64
2023/04/18 14:19:19;;;;;;;6.07;5.57;;;;;;;;;;5019939;28;20258;-65
2023/04/18 14:21:47;;;;;;;6.70;6.10;;;;;;;;;;5011824;28;20215;-63
2023/04/18 14:24:14;;;;;;;6.30;5.80;;;;;;;;;;5019074;28;20227;-63
2023/04/18 14:26:41;;;;;;;5.65;5.22;;;;;;;;;;5018624;28;20239;-63
2023/04/18 14:29:09;;;;;;;6.45;5.90;;;;;;;;;;5025121;28;20215;-64
2023/04/18 14:31:37;;;;;;;6.93;6.32;;;;;;;;;;5017465;28;20285;-64
2023/04/18 14:34:04;;;;;;;5.93;5.43;;;;;;;;;;5019266;28;20282;-63
2023/04/18 14:36:31;;;;;;;5.80;5.30;;;;;;;;;;5022661;28;20201;-64
2023/04/18 14:38:59;;;;;;;6.10;5.50;;;;;;;;;;5021634;28;20261;-63
2023/04/18 14:41:26;;;;;;;6.38;5.78;;;;;;;;;;5019702;28;20208;-63
2023/04/18 14:43:53;;;;;;;5.65;5.20;;;;;;;;;;5011471;28;20209;-64
2023/04/18 14:46:22;;;;;;;5.47;5.03;;;;;;;;;;5018811;28;20232;-63